Time;durP1;ratioP1;P1;durP2;ratioP2;P2;SDS_P1;SDS_P2;PMS_P1;PMS_P2;Temp;Humidity;BMP_temperature;BMP_pressure;BME280_temperature;BME280_humidity;BME280_pressure;Samples;Min_cycle;Max_cycle;Signal;HPM_P1;HPM_P2
2022/08/19 00:00:08;;;;;;;16.77;2.55;;;;;;;11.69;100.00;100654.34;4941069;28;20045;-85
2022/08/19 00:02:35;;;;;;;18.42;3.85;;;;;;;11.57;100.00;100632.44;4965310;28;20034;-84
2022/08/19 00:05:01;;;;;;;12.75;2.65;;;;;;;11.69;100.00;100657.03;4979408;28;20141;-84
2022/08/19 00:07:27;;;;;;;17.17;2.80;;;;;;;11.46;100.00;100616.75;4976432;28;20455;-85
2022/08/19 00:09:53;;;;;;;13.88;3.50;;;;;;;11.49;100.00;100646.00;4967491;28;20370;-85
2022/08/19 00:12:19;;;;;;;15.85;2.63;;;;;;;11.49;100.00;100646.00;4943337;28;20074;-86
2022/08/19 00:14:44;;;;;;;20.45;2.58;;;;;;;11.50;100.00;100636.06;4968314;28;20070;-85
2022/08/19 00:17:10;;;;;;;22.88;3.50;;;;;;;11.57;100.00;100642.38;4962556;28;20034;-85
2022/08/19 00:19:36;;;;;;;29.65;3.70;;;;;;;11.57;100.00;100634.31;4941041;28;20384;-84
2022/08/19 00:22:03;;;;;;;22.08;3.67;;;;;;;11.77;100.00;100656.13;4947498;28;20034;-85
2022/08/19 00:24:29;;;;;;;18.65;3.53;;;;;;;11.78;100.00;100649.72;4942593;28;20027;-85
2022/08/19 00:26:56;;;;;;;22.73;3.72;;;;;;;11.85;100.00;100651.50;4999563;28;20035;-85
2022/08/19 00:29:24;;;;;;;15.98;3.35;;;;;;;11.86;100.00;100658.56;4939274;28;20043;-85
2022/08/19 00:31:53;;;;;;;23.75;3.08;;;;;;;11.87;100.00;100649.44;4957663;28;20118;-86
2022/08/19 00:34:19;;;;;;;25.25;4.40;;;;;;;11.88;100.00;100659.22;4977473;28;20035;-85
2022/08/19 00:36:45;;;;;;;30.42;4.25;;;;;;;11.61;100.00;100608.66;4953264;28;20126;-85
2022/08/19 00:39:12;;;;;;;13.75;2.55;;;;;;;11.88;100.00;100648.44;4944408;28;20039;-85
2022/08/19 00:41:38;;;;;;;21.08;2.85;;;;;;;11.84;100.00;100638.19;4966104;28;20457;-84
2022/08/19 00:44:04;;;;;;;15.55;2.42;;;;;;;11.82;100.00;100643.75;4947012;28;20034;-84
2022/08/19 00:46:32;;;;;;;12.20;2.92;;;;;;;11.94;100.00;100659.50;4975550;28;20122;-84
2022/08/19 00:48:59;;;;;;;22.58;4.28;;;;;;;11.74;100.00;100618.78;4968011;28;20493;-84
2022/08/19 00:51:30;;;;;;;22.08;3.00;;;;;;;11.94;100.00;100648.72;4973522;28;20035;-84
2022/08/19 00:53:57;;;;;;;15.68;2.38;;;;;;;11.86;100.00;100631.63;4956777;28;20045;-84
2022/08/19 00:56:23;;;;;;;11.75;2.97;;;;;;;11.86;100.00;100638.88;4963070;28;20034;-83
2022/08/19 00:58:49;;;;;;;14.98;2.33;;;;;;;11.60;100.00;100598.91;4954516;28;20481;-84
2022/08/19 01:01:14;;;;;;;16.23;2.35;;;;;;;11.62;100.00;100610.34;4963805;28;20037;-83
2022/08/19 01:03:40;;;;;;;13.00;2.38;;;;;;;11.65;100.00;100629.66;4974508;28;20031;-84
2022/08/19 01:06:06;;;;;;;10.88;2.00;;;;;;;11.55;100.00;100639.03;4950444;29;20035;-83
2022/08/19 01:08:33;;;;;;;12.23;2.08;;;;;;;11.23;100.00;100608.75;4957343;28;20122;-84
2022/08/19 01:10:59;;;;;;;13.25;2.40;;;;;;;11.22;100.00;100625.91;4946677;28;20046;-84
2022/08/19 01:13:27;;;;;;;8.45;1.77;;;;;;;11.05;100.00;100619.00;4973159;28;20262;-84
2022/08/19 01:16:01;;;;;;;13.02;2.25;;;;;;;11.11;100.00;100631.72;4940903;28;20052;-83
2022/08/19 01:18:27;;;;;;;7.13;1.65;;;;;;;11.22;100.00;100634.00;4944299;28;20042;-82
2022/08/19 01:20:57;;;;;;;9.52;2.03;;;;;;;11.27;100.00;100626.19;4971077;28;20050;-83
2022/08/19 01:23:42;;;;;;;9.00;1.73;;;;;;;11.17;100.00;100599.56;4956361;28;20068;-83
2022/08/19 01:26:13;;;;;;;13.73;2.00;;;;;;;11.34;100.00;100631.69;4976775;28;20038;-84
2022/08/19 01:28:40;;;;;;;11.68;1.65;;;;;;;11.12;100.00;100601.13;4954068;28;20042;-83
2022/08/19 01:31:12;;;;;;;10.48;2.20;;;;;;;11.07;100.00;100598.97;4940394;28;20569;-84
2022/08/19 01:33:37;;;;;;;17.77;1.90;;;;;;;11.21;100.00;100622.38;4960052;28;20031;-83
2022/08/19 01:36:16;;;;;;;8.73;2.00;;;;;;;11.28;100.00;100624.34;4943734;28;20043;-84
2022/08/19 01:38:42;;;;;;;10.48;1.88;;;;;;;11.04;100.00;100574.31;4940293;28;20038;-84
2022/08/19 01:41:10;;;;;;;15.98;2.58;;;;;;;11.44;100.00;100627.69;4956914;28;20034;-85
2022/08/19 01:43:36;;;;;;;19.33;2.58;;;;;;;11.38;100.00;100604.22;4956927;28;20045;-84
2022/08/19 01:46:03;;;;;;;24.77;3.30;;;;;;;11.52;100.00;100628.63;4975656;28;20057;-84
2022/08/19 01:48:37;;;;;;;14.85;3.00;;;;;;;11.21;100.00;100581.16;4946768;28;20042;-83
2022/08/19 01:51:04;;;;;;;12.73;2.65;;;;;;;11.56;100.00;100630.75;4973524;28;20324;-85
2022/08/19 01:53:30;;;;;;;12.70;2.53;;;;;;;11.58;100.00;100625.19;4956098;28;20396;-85
2022/08/19 01:55:56;;;;;;;13.50;2.15;;;;;;;11.54;100.00;100613.13;4953573;28;20170;-86
2022/08/19 01:58:25;;;;;;;36.00;5.82;;;;;;;11.70;100.00;100633.66;4955093;28;20066;-85
2022/08/19 02:00:50;;;;;;;24.85;2.72;;;;;;;11.60;100.00;100612.38;4944118;28;20038;-85
2022/08/19 02:03:18;;;;;;;19.63;2.80;;;;;;;11.62;100.00;100613.03;4956152;28;20385;-86
2022/08/19 02:05:45;;;;;;;25.23;3.17;;;;;;;11.77;100.00;100643.47;4960692;28;20456;-84
2022/08/19 02:08:11;;;;;;;18.92;2.95;;;;;;;11.74;100.00;100638.47;4952271;28;20034;-85
2022/08/19 02:10:43;;;;;;;16.92;2.90;;;;;;;11.74;100.00;100634.94;4940708;28;20030;-84
2022/08/19 02:13:09;;;;;;;16.70;2.28;;;;;;;11.64;100.00;100605.59;4943824;28;20039;-85
2022/08/19 02:15:35;;;;;;;17.23;3.25;;;;;;;11.69;100.00;100632.78;4955694;28;20448;-85
2022/08/19 02:18:01;;;;;;;17.50;3.17;;;;;;;11.60;100.00;100631.22;4957982;28;20069;-84
2022/08/19 02:20:26;;;;;;;6.90;1.70;;;;;;;11.54;100.00;100621.22;4940187;28;20042;-85
2022/08/19 02:22:52;;;;;;;12.85;2.33;;;;;;;11.48;100.00;100622.75;4955840;28;20512;-85
2022/08/19 02:25:18;;;;;;;14.93;2.83;;;;;;;11.47;100.00;100637.25;4961552;28;20042;-85
2022/08/19 02:27:43;;;;;;;12.48;2.15;;;;;;;11.33;100.00;100640.78;4957926;28;20050;-84
2022/08/19 02:30:15;;;;;;;10.02;1.67;;;;;;;11.22;100.00;100631.31;4952530;28;20034;-84
2022/08/19 02:32:41;;;;;;;11.98;2.83;;;;;;;11.21;100.00;100638.53;4943225;28;20034;-85
2022/08/19 02:35:08;;;;;;;9.32;2.10;;;;;;;10.93;100.00;100594.41;4966262;28;20115;-85
2022/08/19 02:40:18;;;;;;;12.60;1.92;;;;;;;11.09;100.00;100628.41;4971349;28;20038;-85
2022/08/19 02:42:45;;;;;;;6.00;1.38;;;;;;;11.11;100.00;100635.25;4958248;28;20638;-85
2022/08/19 02:45:13;;;;;;;4.18;1.20;;;;;;;10.86;100.00;100607.75;4951087;28;20039;-86
2022/08/19 02:47:38;;;;;;;8.35;1.40;;;;;;;10.87;100.00;100635.47;4954043;28;20034;-85
2022/08/19 02:50:05;;;;;;;9.32;1.17;;;;;;;10.89;100.00;100654.97;4957497;28;20030;-85
2022/08/19 02:52:32;;;;;;;20.25;1.60;;;;;;;10.84;100.00;100646.59;4954905;28;20396;-85
2022/08/19 02:54:57;;;;;;;13.85;1.70;;;;;;;10.82;100.00;100638.69;4958501;28;20037;-85
2022/08/19 02:57:24;;;;;;;8.35;1.33;;;;;;;11.04;100.00;100653.16;4975752;28;20039;-85
2022/08/19 02:59:50;;;;;;;13.52;2.25;;;;;;;11.02;100.00;100628.28;4985786;28;20039;-85
2022/08/19 03:02:16;;;;;;;9.82;1.27;;;;;;;11.21;100.00;100635.81;4982402;28;20109;-84
2022/08/19 03:04:42;;;;;;;8.30;1.38;;;;;;;11.14;100.00;100625.97;4955218;28;20298;-84
2022/08/19 03:07:08;;;;;;;5.75;1.80;;;;;;;11.31;100.00;100658.97;4938088;28;20035;-85
2022/08/19 03:09:36;;;;;;;6.65;1.30;;;;;;;11.25;100.00;100649.78;4977937;28;20128;-85
2022/08/19 03:12:03;;;;;;;10.00;1.40;;;;;;;11.07;100.00;100636.66;4960455;28;20062;-84
2022/08/19 03:14:33;;;;;;;5.65;1.75;;;;;;;11.05;100.00;100644.06;4956045;28;20031;-83
2022/08/19 03:17:01;;;;;;;8.10;1.00;;;;;;;10.71;100.00;100585.34;4954705;28;20330;-84
2022/08/19 03:19:27;;;;;;;10.93;2.58;;;;;;;11.05;100.00;100648.59;4954400;28;20501;-85
2022/08/19 03:21:53;;;;;;;11.05;1.42;;;;;;;11.04;100.00;100650.47;4954338;28;20034;-84
2022/08/19 03:24:19;;;;;;;11.63;1.92;;;;;;;10.90;100.00;100649.41;4970847;28;20180;-84
2022/08/19 03:26:48;;;;;;;16.23;2.08;;;;;;;10.80;100.00;100646.13;4940474;28;20050;-84
2022/08/19 03:29:14;;;;;;;10.05;1.20;;;;;;;10.81;100.00;100639.72;4954789;28;20046;-83
2022/08/19 03:31:42;;;;;;;14.02;2.35;;;;;;;10.57;100.00;100593.19;4971268;28;20438;-84
2022/08/19 03:34:11;;;;;;;16.48;1.73;;;;;;;10.91;100.00;100640.31;4945148;28;20588;-84
2022/08/19 03:36:37;;;;;;;15.10;2.45;;;;;;;10.92;100.00;100633.91;4968460;28;20117;-84
2022/08/19 03:39:04;;;;;;;9.50;2.78;;;;;;;10.99;100.00;100636.72;4951210;28;20537;-84
2022/08/19 03:41:32;;;;;;;9.57;2.08;;;;;;;10.82;100.00;100610.97;4938830;28;20035;-84
2022/08/19 03:43:59;;;;;;;7.90;1.35;;;;;;;10.83;100.00;100635.00;4941744;29;20035;-84
2022/08/19 03:46:30;;;;;;;10.38;1.40;;;;;;;10.74;100.00;100628.84;4956083;28;20808;-85
2022/08/19 03:48:57;;;;;;;12.73;2.03;;;;;;;10.52;100.00;100594.72;4954987;28;20054;-84
2022/08/19 03:51:30;;;;;;;14.02;2.15;;;;;;;10.93;100.00;100645.53;4969238;28;20042;-83
2022/08/19 03:53:57;;;;;;;7.85;1.67;;;;;;;10.77;100.00;100606.97;4968242;28;20046;-84
2022/08/19 03:56:25;;;;;;;8.00;1.52;;;;;;;10.98;100.00;100635.03;4959331;28;20048;-84
2022/08/19 03:58:50;;;;;;;6.05;1.40;;;;;;;11.05;100.00;100643.22;4968271;28;20049;-84
2022/08/19 04:01:19;;;;;;;13.70;2.42;;;;;;;11.06;100.00;100636.81;4956851;28;20031;-85
2022/08/19 04:03:46;;;;;;;10.80;1.85;;;;;;;11.02;100.00;100632.84;4956686;28;20043;-84
2022/08/19 04:06:17;;;;;;;10.43;1.70;;;;;;;10.95;100.00;100608.50;4964459;28;20034;-84
2022/08/19 04:08:44;;;;;;;17.90;2.22;;;;;;;11.13;100.00;100627.84;4954204;28;20054;-84
2022/08/19 04:11:14;;;;;;;19.63;2.55;;;;;;;11.12;100.00;100625.34;4936817;28;20549;-84
2022/08/19 04:13:40;;;;;;;11.82;1.75;;;;;;;11.12;100.00;100619.97;4961755;28;20525;-84
2022/08/19 04:16:06;;;;;;;18.23;2.88;;;;;;;11.06;100.00;100617.97;4972540;28;20031;-83
2022/08/19 04:18:36;;;;;;;8.13;2.40;;;;;;;10.96;100.00;100616.41;4972540;28;20086;-84
2022/08/19 04:21:02;;;;;;;20.00;2.05;;;;;;;11.08;100.00;100621.31;4975722;28;20039;-84
2022/08/19 04:23:28;;;;;;;10.98;1.90;;;;;;;11.12;100.00;100618.09;4957875;28;20042;-83
2022/08/19 04:25:54;;;;;;;12.60;2.38;;;;;;;11.16;100.00;100629.31;4945539;28;20050;-84
2022/08/19 04:28:21;;;;;;;8.75;2.17;;;;;;;10.85;100.00;100579.19;4957066;28;20045;-83
2022/08/19 04:30:49;;;;;;;19.80;2.38;;;;;;;10.99;100.00;100632.16;4963528;28;20026;-84
2022/08/19 04:33:18;;;;;;;10.93;1.35;;;;;;;10.83;100.00;100626.09;4977597;28;20480;-84
2022/08/19 04:35:46;;;;;;;10.82;1.90;;;;;;;10.78;100.00;100634.72;4941411;28;20038;-84
2022/08/19 04:38:13;;;;;;;8.77;1.63;;;;;;;10.81;100.00;100639.72;4972699;28;20077;-84
2022/08/19 04:43:32;;;;;;;2.30;1.15;;;;;;;11.08;100.00;100634.78;4966729;28;20466;-84
2022/08/19 04:45:57;;;;;;;11.00;1.50;;;;;;;11.02;100.00;100622.06;4950072;28;20039;-84
2022/08/19 04:48:26;;;;;;;16.10;1.88;;;;;;;10.84;100.00;100595.50;4957391;28;20382;-85
2022/08/19 04:50:59;;;;;;;9.20;1.85;;;;;;;10.87;100.00;100605.88;4962451;28;20101;-84
2022/08/19 04:53:30;;;;;;;15.13;1.75;;;;;;;10.89;100.00;100636.97;4942775;28;20098;-85
2022/08/19 04:55:57;;;;;;;11.75;1.63;;;;;;;10.76;100.00;100642.94;4943147;28;20489;-84
2022/08/19 04:58:24;;;;;;;13.80;1.58;;;;;;;10.60;100.00;100628.78;4941496;28;20026;-84
2022/08/19 05:00:50;;;;;;;16.48;2.20;;;;;;;10.62;100.00;100634.84;4965860;28;20042;-87
2022/08/19 05:03:16;;;;;;;7.35;2.03;;;;;;;10.59;100.00;100641.41;4943537;28;20038;-85
2022/08/19 05:05:44;;;;;;;7.65;1.83;;;;;;;10.47;100.00;100629.38;4945744;28;20044;-85
2022/08/19 05:08:10;;;;;;;11.50;1.95;;;;;;;10.32;100.00;100616.72;4960213;28;20366;-83
2022/08/19 05:10:37;;;;;;;18.15;2.10;;;;;;;10.28;100.00;100614.56;4957480;28;20042;-85
2022/08/19 05:13:03;;;;;;;11.52;2.00;;;;;;;10.47;100.00;100638.28;4960880;28;20503;-84
2022/08/19 05:15:29;;;;;;;12.90;2.42;;;;;;;10.48;100.00;100650.72;4957696;28;20129;-84
2022/08/19 05:23:26;;;;;;;11.70;1.58;;;;;;;10.66;100.00;100650.41;4972948;28;20039;-84
2022/08/19 05:25:52;;;;;;;9.43;1.85;;;;;;;10.85;100.00;100661.69;4952088;28;20363;-84
2022/08/19 05:28:19;;;;;;;16.02;2.40;;;;;;;10.97;100.00;100660.28;4954303;28;20120;-84
2022/08/19 05:30:45;;;;;;;15.18;1.83;;;;;;;11.02;100.00;100646.28;4941015;28;20501;-83
2022/08/19 05:33:11;;;;;;;10.05;1.70;;;;;;;11.08;100.00;100645.53;4975659;28;20022;-83
2022/08/19 05:35:39;;;;;;;23.73;2.83;;;;;;;11.02;100.00;100630.97;4952159;28;20043;-83
2022/08/19 05:38:09;;;;;;;13.88;1.90;;;;;;;11.06;100.00;100628.75;4957184;28;20546;-84
2022/08/19 05:40:35;;;;;;;14.63;2.58;;;;;;;11.38;100.00;100665.31;4940909;28;20441;-83
2022/08/19 05:43:02;;;;;;;11.93;3.13;;;;;;;11.45;100.00;100666.22;4961197;28;20495;-84
2022/08/19 05:45:28;;;;;;;8.80;2.35;;;;;;;11.58;100.00;100668.28;4971575;28;20469;-83
2022/08/19 05:47:54;;;;;;;13.30;1.92;;;;;;;11.56;100.00;100656.84;4943849;28;20551;-84
2022/08/19 05:50:20;;;;;;;13.35;2.10;;;;;;;11.78;100.00;100690.97;4940114;28;20037;-84
2022/08/19 05:52:45;;;;;;;13.73;2.50;;;;;;;11.75;100.00;100672.47;4957491;28;20047;-84
2022/08/19 05:55:11;;;;;;;16.60;2.85;;;;;;;11.86;100.00;100685.50;4953795;28;20270;-83
2022/08/19 05:57:37;;;;;;;23.40;3.20;;;;;;;11.87;100.00;100679.09;4937916;28;20059;-84
2022/08/19 06:00:08;;;;;;;4.03;1.75;;;;;;;11.70;100.00;100653.34;4945527;28;20449;-83
2022/08/19 06:02:35;;;;;;;13.18;1.90;;;;;;;11.79;100.00;100667.53;4956717;28;20018;-84
2022/08/19 06:05:02;;;;;;;12.77;2.08;;;;;;;11.65;100.00;100653.06;4955949;28;20089;-85
2022/08/19 06:07:28;;;;;;;7.70;1.73;;;;;;;11.83;100.00;100690.41;4963911;28;20039;-84
2022/08/19 06:09:54;;;;;;;14.82;2.40;;;;;;;11.73;100.00;100671.00;4968600;28;20094;-84
2022/08/19 06:12:26;;;;;;;3.47;1.40;;;;;;;11.80;100.00;100694.31;4939607;28;20124;-84
2022/08/19 06:14:54;;;;;;;11.93;2.08;;;;;;;11.60;100.00;100679.72;4956134;28;20038;-84
2022/08/19 06:17:24;;;;;;;14.40;2.22;;;;;;;11.48;100.00;100676.63;4973811;28;20026;-84
2022/08/19 06:19:50;;;;;;;8.90;1.70;;;;;;;11.35;100.00;100688.03;4942210;28;20035;-84
2022/08/19 06:22:16;;;;;;;14.73;2.20;;;;;;;11.17;100.00;100668.69;4972879;28;20043;-83
2022/08/19 06:24:42;;;;;;;11.15;1.88;;;;;;;11.07;100.00;100668.09;4936621;28;20373;-84
2022/08/19 06:27:08;;;;;;;8.43;1.80;;;;;;;11.23;100.00;100698.38;4938193;28;20035;-84
2022/08/19 06:29:35;;;;;;;10.55;2.30;;;;;;;11.37;100.00;100704.00;4957329;28;20040;-84
2022/08/19 06:32:02;;;;;;;7.38;1.90;;;;;;;11.68;100.00;100711.94;4952486;28;20035;-84
2022/08/19 06:34:30;;;;;;;14.25;2.40;;;;;;;12.05;100.00;100697.56;4953890;28;20038;-84
2022/08/19 06:36:59;;;;;;;13.85;3.70;;;;;;;12.36;100.00;100668.69;4973777;28;20034;-84
2022/08/19 06:39:26;;;;;;;6.13;1.73;;;;;;;13.01;100.00;100697.41;4960735;28;20042;-85
2022/08/19 06:41:54;;;;;;;14.93;2.28;;;;;;;13.20;100.00;100683.28;4964241;28;20031;-84
2022/08/19 06:44:22;;;;;;;13.27;2.30;;;;;;;13.44;100.00;100696.56;4974707;28;20023;-85
2022/08/19 06:46:48;;;;;;;14.73;2.45;;;;;;;13.09;100.00;100677.56;4959057;28;20101;-85
2022/08/19 06:49:16;;;;;;;19.40;2.67;;;;;;;13.31;100.00;100698.13;4972534;28;20042;-84
2022/08/19 06:51:43;;;;;;;6.13;1.40;;;;;;;13.49;100.00;100700.34;4955765;28;20031;-83
2022/08/19 06:54:10;;;;;;;12.38;2.60;;;;;;;13.45;100.00;100684.75;4970030;28;20130;-84
2022/08/19 06:56:36;;;;;;;13.88;2.38;;;;;;;13.51;100.00;100703.69;4963268;28;20042;-85
2022/08/19 06:59:04;;;;;;;12.88;2.30;;;;;;;13.37;100.00;100699.22;4967055;28;20465;-85
2022/08/19 07:01:30;;;;;;;12.50;1.85;;;;;;;13.01;100.00;100675.81;4957369;28;20045;-85
2022/08/19 07:03:56;;;;;;;15.10;2.40;;;;;;;12.82;100.00;100684.56;4938768;28;20038;-85
2022/08/19 07:06:21;;;;;;;12.10;2.22;;;;;;;12.77;100.00;100710.25;4940574;28;20034;-85
2022/08/19 07:08:48;;;;;;;23.35;4.00;;;;;;;12.52;100.00;100706.25;4943522;28;20046;-84
2022/08/19 07:11:21;;;;;;;5.03;1.92;;;;;;;12.57;100.00;100738.03;4951168;28;20039;-85
2022/08/19 07:13:48;;;;;;;6.28;1.67;;;;;;;12.56;100.00;100723.72;4953154;28;20027;-83
2022/08/19 07:16:16;;;;;;;7.18;2.17;;;;;;;12.48;100.00;100726.53;4953241;28;20049;-84
2022/08/19 07:18:42;;;;;;;10.73;2.78;;;;;;;12.12;100.00;100678.81;4977754;28;20026;-82
2022/08/19 07:21:11;;;;;;;15.02;1.92;;;;;;;12.37;100.00;100719.75;4958086;28;20030;-83
2022/08/19 07:23:37;;;;;;;7.82;2.60;;;;;;;12.37;100.00;100718.94;4937475;28;20180;-84
2022/08/19 07:26:14;;;;;;;13.85;2.00;;;;;;;12.34;100.00;100716.63;4955222;28;20556;-83
2022/08/19 07:28:40;;;;;;;9.98;1.95;;;;;;;12.30;100.00;100722.38;4954911;28;20444;-83
2022/08/19 07:31:07;;;;;;;15.63;2.75;;;;;;;12.29;100.00;100720.69;4976162;28;20043;-85
2022/08/19 07:33:33;;;;;;;10.77;3.10;;;;;;;12.20;100.00;100713.75;4969373;28;20396;-85
2022/08/19 07:35:59;;;;;;;15.57;2.72;;;;;;;12.30;100.00;100725.09;4949196;28;20046;-86
2022/08/19 07:38:25;;;;;;;15.77;3.03;;;;;;;12.30;100.00;100719.69;4956283;28;20023;-84
2022/08/19 07:40:51;;;;;;;9.05;2.25;;;;;;;12.37;100.00;100733.25;4955083;28;20027;-86
2022/08/19 07:43:22;;;;;;;7.85;2.10;;;;;;;12.46;100.00;100747.44;4955116;28;20043;-88
2022/08/19 07:45:48;;;;;;;15.13;3.80;;;;;;;12.18;100.00;100718.47;4954703;28;20113;-87
2022/08/19 07:48:14;;;;;;;9.25;2.30;;;;;;;12.36;100.00;100763.06;4978648;28;20034;-87
2022/08/19 07:50:40;;;;;;;8.30;2.50;;;;;;;12.21;100.00;100761.22;4959330;28;20091;-84
2022/08/19 07:53:07;;;;;;;0.30;0.30;;;;;;;12.35;100.00;100767.63;4969349;28;20571;-85
2022/08/19 07:55:33;;;;;;;0.30;0.30;;;;;;;12.45;100.00;100761.97;4946954;28;20473;-84
2022/08/19 07:57:59;;;;;;;0.77;0.77;;;;;;;12.59;100.00;100755.69;4965524;28;20039;-83
2022/08/19 08:00:25;;;;;;;0.30;0.30;;;;;;;12.53;100.00;100726.78;4966334;28;20129;-84
2022/08/19 08:02:52;;;;;;;0.30;0.30;;;;;;;12.79;100.00;100760.50;4980691;28;20540;-83
2022/08/19 08:10:46;;;;;;;0.30;0.30;;;;;;;13.24;100.00;100772.81;4984667;28;20102;-85
2022/08/19 08:13:11;;;;;;;0.30;0.30;;;;;;;13.34;100.00;100762.56;4958946;28;20200;-85
2022/08/19 08:15:38;;;;;;;0.35;0.35;;;;;;;13.53;100.00;100763.75;4961397;28;20047;-86
2022/08/19 08:18:04;;;;;;;0.40;0.40;;;;;;;13.79;100.00;100765.00;4942586;28;20043;-86
2022/08/19 08:20:30;;;;;;;0.40;0.40;;;;;;;14.04;100.00;100765.38;4957772;28;20031;-84
2022/08/19 08:25:40;;;;;;;0.30;0.30;;;;;;;15.95;100.00;100774.22;4956800;28;20031;-84
2022/08/19 08:28:08;;;;;;;0.50;0.50;;;;;;;15.48;100.00;100767.13;4975219;28;22573;-83
2022/08/19 08:30:36;;;;;;;0.30;0.30;;;;;;;15.19;100.00;100769.22;4973631;28;20030;-84
2022/08/19 08:33:02;;;;;;;0.40;0.40;;;;;;;15.28;100.00;100764.41;4991954;28;20039;-80
2022/08/19 08:35:28;;;;;;;0.38;0.38;;;;;;;15.39;100.00;100763.78;4958207;28;20422;-85
2022/08/19 08:37:55;;;;;;;0.40;0.40;;;;;;;16.41;100.00;100759.72;4956178;28;20062;-82
2022/08/19 08:40:30;;;;;;;0.40;0.40;;;;;;;16.85;100.00;100768.13;4973604;28;20121;-85
2022/08/19 08:43:02;;;;;;;0.40;0.40;;;;;;;17.45;100.00;100754.16;4941857;28;20031;-86
2022/08/19 08:45:28;;;;;;;0.50;0.50;;;;;;;18.47;97.82;100770.97;4957673;28;20097;-83
2022/08/19 08:47:57;;;;;;;0.50;0.50;;;;;;;17.57;100.00;100764.09;4960076;28;20038;-83
2022/08/19 08:50:35;;;;;;;0.75;0.75;;;;;;;20.76;87.42;100769.53;4957589;28;20508;-88
2022/08/19 08:53:01;;;;;;;0.40;0.40;;;;;;;20.99;82.40;100770.53;4989205;28;20035;-82
2022/08/19 08:55:29;;;;;;;0.30;0.30;;;;;;;19.24;91.18;100767.66;4958124;28;20097;-81
2022/08/19 08:57:57;;;;;;;0.60;0.60;;;;;;;20.46;86.71;100771.63;4976672;28;20367;-82
2022/08/19 09:00:30;;;;;;;2.20;0.82;;;;;;;23.06;74.68;100758.53;4951873;28;20093;-85
2022/08/19 09:02:57;;;;;;;;;;;;;;;21.66;79.43;100756.94;4976122;28;20038;-88
2022/08/19 09:05:42;;;;;;;0.40;0.40;;;;;;;20.85;82.94;100759.91;4946760;28;20376;-89
2022/08/19 09:08:31;;;;;;;0.80;0.80;;;;;;;20.03;88.73;100767.41;4960789;28;20045;-87
2022/08/19 09:10:57;;;;;;;3.60;1.05;;;;;;;20.17;88.57;100764.19;4949792;28;20031;-89
2022/08/19 09:13:33;;;;;;;3.20;0.88;;;;;;;19.73;90.15;100771.91;4973496;28;20382;-81
2022/08/19 09:16:03;;;;;;;0.52;0.50;;;;;;;19.44;91.24;100759.16;4957977;28;20066;-83
2022/08/19 09:19:01;;;;;;;6.88;2.10;;;;;;;19.62;89.76;100756.34;4956132;28;20485;-83
2022/08/19 09:21:27;;;;;;;6.68;0.98;;;;;;;18.95;90.85;100764.72;4962567;28;20046;-88
2022/08/19 09:23:53;;;;;;;11.68;2.50;;;;;;;19.25;88.84;100751.06;4973298;28;20097;-89
2022/08/19 09:26:23;;;;;;;9.20;2.25;;;;;;;19.80;85.23;100755.44;4953319;28;20053;-84
2022/08/19 09:28:52;;;;;;;6.95;2.45;;;;;;;21.04;82.63;100737.81;4960492;28;20058;-86
2022/08/19 09:31:23;;;;;;;15.13;4.18;;;;;;;23.15;70.31;100756.16;4994806;28;20065;-80
2022/08/19 09:33:52;;;;;;;23.33;2.88;;;;;;;24.19;64.74;100756.69;4938857;28;20053;-90
2022/08/19 09:36:19;;;;;;;16.98;3.13;;;;;;;23.59;66.99;100764.22;4983045;28;20030;-87
2022/08/19 09:38:46;;;;;;;11.55;2.60;;;;;;;24.27;63.90;100759.75;4973465;28;20046;-86
2022/08/19 09:41:15;;;;;;;15.82;2.78;;;;;;;23.96;66.59;100755.19;4956517;28;20081;-85
2022/08/19 09:43:43;;;;;;;17.92;3.53;;;;;;;22.10;72.06;100761.72;4955764;28;20066;-91
2022/08/19 09:46:09;;;;;;;22.77;3.78;;;;;;;21.11;76.14;100754.06;4959308;28;20038;-89
2022/08/19 09:48:36;;;;;;;18.15;3.78;;;;;;;20.70;74.76;100742.38;4973220;28;20039;-85
2022/08/19 09:51:29;;;;;;;26.23;4.85;;;;;;;21.57;71.84;100747.50;4955513;28;20066;-88
2022/08/19 09:53:59;;;;;;;25.90;4.45;;;;;;;20.99;74.05;100751.41;4972559;28;20386;-77
2022/08/19 09:56:25;;;;;;;16.52;3.88;;;;;;;20.59;74.97;100761.28;4978962;28;20424;-78
2022/08/19 09:58:51;;;;;;;15.48;3.05;;;;;;;20.22;73.82;100758.03;4958319;28;20097;-79
2022/08/19 10:01:19;;;;;;;20.50;4.00;;;;;;;19.76;76.96;100746.88;4949360;28;20084;-79
2022/08/19 10:03:48;;;;;;;21.83;3.90;;;;;;;19.67;79.56;100761.94;4972117;28;20034;-78
2022/08/19 10:06:14;;;;;;;21.17;3.88;;;;;;;19.45;79.78;100767.13;4957322;28;20098;-78
2022/08/19 10:08:39;;;;;;;21.35;3.22;;;;;;;19.41;78.41;100760.44;4942527;28;20469;-78
2022/08/19 10:11:06;;;;;;;23.95;3.88;;;;;;;20.13;78.26;100765.72;4966751;28;20042;-78
2022/08/19 10:13:35;;;;;;;22.23;4.40;;;;;;;24.29;64.45;100768.56;4953173;28;20027;-78
2022/08/19 10:16:09;;;;;;;16.35;3.28;;;;;;;26.59;55.11;100769.84;4972023;28;20505;-79
2022/08/19 10:18:35;;;;;;;14.02;3.10;;;;;;;27.66;52.15;100765.59;4956530;28;20026;-79
2022/08/19 10:21:08;;;;;;;13.25;2.85;;;;;;;26.43;52.06;100777.31;4951248;28;20039;-79
2022/08/19 10:23:36;;;;;;;19.35;3.40;;;;;;;26.30;51.30;100768.56;4970641;28;20477;-78
2022/08/19 10:26:04;;;;;;;15.10;3.25;;;;;;;26.32;53.90;100763.56;4953603;28;20039;-79
2022/08/19 10:28:29;;;;;;;12.48;3.10;;;;;;;24.70;55.75;100767.94;4948181;28;20030;-79
2022/08/19 10:30:55;;;;;;;13.38;3.10;;;;;;;24.47;51.85;100760.97;4973156;28;20035;-76
2022/08/19 10:33:21;;;;;;;17.05;3.13;;;;;;;24.29;52.34;100751.22;4991319;28;20037;-78
2022/08/19 10:35:47;;;;;;;15.02;3.50;;;;;;;23.80;53.43;100760.56;4972259;28;20042;-79
2022/08/19 10:38:13;;;;;;;24.80;3.55;;;;;;;23.01;50.93;100764.78;4975921;28;20042;-76
2022/08/19 10:40:38;;;;;;;28.05;3.33;;;;;;;22.21;51.97;100777.22;4972567;28;20023;-78
2022/08/19 10:43:04;;;;;;;27.48;3.53;;;;;;;21.73;52.85;100775.94;4969773;28;20030;-77
2022/08/19 10:45:29;;;;;;;22.15;4.25;;;;;;;22.08;51.84;100766.59;4963675;28;20058;-77
2022/08/19 10:47:55;;;;;;;20.08;3.40;;;;;;;23.20;49.79;100784.44;4973773;28;20561;-77
2022/08/19 10:53:08;;;;;;;17.23;2.80;;;;;;;22.28;51.89;100786.09;4961180;28;20503;-77
2022/08/19 10:58:24;;;;;;;17.70;3.53;;;;;;;19.02;67.29;100789.13;4955980;28;20035;-77
2022/08/19 11:00:55;;;;;;;14.43;3.10;;;;;;;18.23;74.70;100787.16;4983204;28;20038;-77
2022/08/19 11:03:21;;;;;;;21.30;2.92;;;;;;;17.91;78.49;100777.41;4964643;28;20069;-77
2022/08/19 11:06:08;;;;;;;20.10;2.75;;;;;;;18.14;79.94;100793.09;4957400;28;20057;-77
2022/08/19 11:08:37;;;;;;;14.90;3.83;;;;;;;18.30;78.51;100797.94;4968317;28;20046;-77
2022/08/19 11:11:04;;;;;;;11.38;2.88;;;;;;;18.37;77.20;100797.88;4975078;28;20465;-77
2022/08/19 11:13:31;;;;;;;17.42;3.17;;;;;;;18.32;77.85;100795.00;4938975;28;20057;-77
2022/08/19 11:16:02;;;;;;;13.27;3.47;;;;;;;18.08;78.23;100791.28;4959929;28;20031;-78
2022/08/19 11:18:28;;;;;;;10.50;2.53;;;;;;;18.84;75.44;100804.47;4942134;28;20046;-78
2022/08/19 11:20:53;;;;;;;13.38;2.92;;;;;;;21.59;63.72;100774.59;4963596;28;20050;-77
2022/08/19 11:23:22;;;;;;;27.65;3.35;;;;;;;21.85;62.64;100806.78;4954868;28;20458;-77
2022/08/19 11:25:52;;;;;;;12.80;2.90;;;;;;;21.84;61.44;100807.88;4963675;28;20501;-77
2022/08/19 11:28:18;;;;;;;10.48;2.22;;;;;;;24.35;53.18;100813.38;4976807;28;20046;-77
2022/08/19 11:30:44;;;;;;;10.68;2.53;;;;;;;24.24;51.01;100808.91;4974851;28;20097;-78
2022/08/19 11:33:10;;;;;;;12.20;3.17;;;;;;;26.00;47.63;100807.22;4958033;28;20034;-77
2022/08/19 11:35:39;;;;;;;10.27;3.25;;;;;;;27.74;42.96;100812.72;4977256;28;20050;-77
2022/08/19 11:38:05;;;;;;;12.57;3.80;;;;;;;27.93;40.18;100785.22;4953072;28;20109;-78
2022/08/19 11:40:32;;;;;;;10.63;2.28;;;;;;;26.47;41.83;100800.47;4950317;28;20030;-77